createdAt,value
2018-08-30T00:00:53.868Z,0.00
2018-08-30T00:01:53.731Z,0.00
2018-08-30T00:02:53.713Z,0.00
2018-08-30T00:03:53.741Z,0.00
2018-08-30T00:04:53.690Z,0.00
2018-08-30T00:05:53.676Z,0.00
2018-08-30T00:06:53.654Z,0.00
2018-08-30T00:07:53.649Z,0.00
2018-08-30T00:08:53.624Z,0.00
2018-08-30T00:09:53.606Z,0.00
2018-08-30T00:10:53.593Z,0.00
2018-08-30T00:11:53.578Z,0.00
2018-08-30T00:12:53.566Z,0.00
2018-08-30T00:13:53.546Z,0.00
2018-08-30T00:14:53.537Z,0.00
2018-08-30T00:15:53.516Z,0.00
2018-08-30T00:16:53.517Z,0.00
2018-08-30T00:17:53.486Z,0.00
2018-08-30T00:18:53.473Z,0.00
2018-08-30T00:19:53.568Z,0.00
2018-08-30T00:20:53.442Z,0.00
2018-08-30T00:21:53.440Z,0.00
2018-08-30T00:22:53.418Z,0.00
2018-08-30T00:23:53.411Z,0.00
2018-08-30T00:24:53.387Z,0.00
2018-08-30T00:25:53.366Z,0.00
2018-08-30T00:26:53.352Z,0.00
2018-08-30T00:27:53.332Z,0.00
2018-08-30T00:28:53.325Z,0.00
2018-08-30T00:29:53.309Z,0.00
2018-08-30T00:30:53.287Z,0.00
2018-08-30T00:31:53.271Z,0.00
2018-08-30T00:32:53.276Z,0.00
2018-08-30T00:33:53.244Z,0.00
2018-08-30T00:34:53.226Z,0.00
2018-08-30T00:35:53.217Z,0.00
2018-08-30T00:36:53.196Z,0.00
2018-08-30T00:37:53.182Z,0.00
2018-08-30T00:38:53.163Z,0.00
2018-08-30T00:39:53.158Z,0.00
2018-08-30T00:40:53.133Z,0.00
2018-08-30T00:41:53.129Z,0.00
2018-08-30T00:42:53.101Z,0.00
2018-08-30T00:43:53.199Z,0.00
2018-08-30T00:44:53.082Z,0.00
2018-08-30T00:45:53.056Z,0.00
2018-08-30T00:46:53.151Z,0.00
2018-08-30T00:47:53.033Z,0.00
2018-08-30T00:48:53.009Z,0.00
2018-08-30T00:49:52.996Z,0.00
2018-08-30T00:50:52.977Z,0.00
2018-08-30T00:51:52.972Z,0.00
2018-08-30T00:52:52.948Z,0.00
2018-08-30T00:53:52.944Z,0.00
2018-08-30T00:54:52.919Z,0.00
2018-08-30T00:55:52.903Z,0.00
2018-08-30T00:56:52.888Z,0.00
2018-08-30T00:57:52.868Z,0.00
2018-08-30T00:58:52.855Z,0.00
2018-08-30T00:59:52.839Z,0.00
2018-08-30T01:00:52.823Z,0.00
2018-08-30T01:01:52.810Z,0.00
2018-08-30T01:02:53.093Z,0.00
2018-08-30T01:03:52.777Z,0.00
2018-08-30T01:04:52.760Z,0.00
2018-08-30T01:05:52.801Z,0.00
2018-08-30T01:06:52.729Z,0.00
2018-08-30T01:07:52.713Z,0.00
2018-08-30T01:08:52.768Z,0.00
2018-08-30T01:09:52.683Z,0.00
2018-08-30T01:10:52.665Z,0.00
2018-08-30T01:11:52.653Z,0.00
2018-08-30T01:12:52.646Z,0.00
2018-08-30T01:13:52.633Z,0.00
2018-08-30T01:14:52.603Z,0.00
2018-08-30T01:15:52.588Z,0.00
2018-08-30T01:16:52.569Z,0.00
2018-08-30T01:17:52.557Z,0.00
2018-08-30T01:18:52.539Z,0.00
2018-08-30T01:19:52.525Z,0.00
2018-08-30T01:20:52.509Z,0.00
2018-08-30T01:21:52.492Z,0.00
2018-08-30T01:22:52.481Z,0.00
2018-08-30T01:23:52.460Z,0.00
2018-08-30T01:24:52.447Z,0.00
2018-08-30T01:25:52.429Z,0.00
2018-08-30T01:26:52.416Z,0.00
2018-08-30T01:27:52.407Z,0.00
2018-08-30T01:28:52.387Z,0.00
2018-08-30T01:29:52.380Z,0.00
2018-08-30T01:30:52.350Z,0.00
2018-08-30T01:31:52.336Z,0.00
2018-08-30T01:32:52.369Z,0.00
2018-08-30T01:33:52.305Z,0.00
2018-08-30T01:34:52.288Z,0.00
2018-08-30T01:35:52.272Z,0.00
2018-08-30T01:36:52.254Z,0.00
2018-08-30T01:37:52.240Z,0.00
2018-08-30T01:38:52.225Z,0.00
2018-08-30T01:39:52.213Z,0.00
2018-08-30T01:40:52.194Z,0.00
2018-08-30T01:41:52.182Z,0.00
2018-08-30T01:42:52.159Z,0.00
2018-08-30T01:43:52.153Z,0.00
2018-08-30T01:44:52.132Z,0.00
2018-08-30T01:45:52.114Z,0.00
2018-08-30T01:46:52.100Z,0.00
2018-08-30T01:47:52.084Z,0.00
2018-08-30T01:48:52.075Z,0.00
2018-08-30T01:49:52.049Z,0.00
2018-08-30T01:50:52.034Z,0.00
2018-08-30T01:51:52.025Z,0.00
2018-08-30T01:52:52.005Z,0.00
2018-08-30T01:53:51.989Z,0.00
2018-08-30T01:54:51.979Z,0.00
2018-08-30T01:55:51.957Z,0.00
2018-08-30T01:56:51.939Z,0.00
2018-08-30T01:57:51.926Z,0.00
2018-08-30T01:58:51.911Z,0.00
2018-08-30T01:59:51.897Z,0.00
2018-08-30T02:00:51.876Z,0.00
2018-08-30T02:01:51.869Z,0.00
2018-08-30T02:02:51.848Z,0.00
2018-08-30T02:03:51.833Z,0.00
2018-08-30T02:04:51.939Z,0.00
2018-08-30T02:05:51.801Z,0.00
2018-08-30T02:06:51.783Z,0.00
2018-08-30T02:07:51.875Z,0.00
2018-08-30T02:08:51.760Z,0.00
2018-08-30T02:09:51.751Z,0.00
2018-08-30T02:10:51.773Z,0.00
2018-08-30T02:11:51.705Z,0.00
2018-08-30T02:12:51.686Z,0.00
2018-08-30T02:13:51.678Z,0.00
2018-08-30T02:14:51.658Z,0.00
2018-08-30T02:15:51.745Z,0.00
2018-08-30T02:16:51.637Z,0.00
2018-08-30T02:17:51.618Z,0.00
2018-08-30T02:18:51.597Z,0.00
2018-08-30T02:19:51.580Z,0.00
2018-08-30T02:20:51.566Z,0.00
2018-08-30T02:21:51.549Z,0.00
2018-08-30T02:22:51.533Z,0.00
2018-08-30T02:23:51.516Z,0.00
2018-08-30T02:24:51.508Z,0.00
2018-08-30T02:25:51.492Z,0.00
2018-08-30T02:26:51.472Z,0.00
2018-08-30T02:27:51.454Z,0.00
2018-08-30T02:28:51.437Z,0.00
2018-08-30T02:29:51.425Z,0.00
2018-08-30T02:30:51.416Z,0.00
2018-08-30T02:31:51.533Z,0.00
2018-08-30T02:32:51.385Z,0.00
2018-08-30T02:33:51.365Z,0.00
2018-08-30T02:34:51.388Z,0.00
2018-08-30T02:35:51.331Z,0.00
2018-08-30T02:36:51.317Z,0.00
2018-08-30T02:37:51.303Z,0.00
2018-08-30T02:38:51.286Z,0.00
2018-08-30T02:39:51.275Z,0.00
2018-08-30T02:40:51.250Z,0.00
2018-08-30T02:41:51.232Z,0.00
2018-08-30T02:42:51.218Z,0.00
2018-08-30T02:43:51.204Z,0.00
2018-08-30T02:44:51.199Z,0.00
2018-08-30T02:45:51.172Z,0.00
2018-08-30T02:46:51.157Z,0.00
2018-08-30T02:47:51.144Z,0.00
2018-08-30T02:48:51.171Z,0.00
2018-08-30T02:49:51.121Z,0.00
2018-08-30T02:50:51.205Z,0.00
2018-08-30T02:51:51.081Z,0.00
2018-08-30T02:52:51.062Z,0.00
2018-08-30T02:53:51.048Z,0.00
2018-08-30T02:54:51.032Z,0.00
2018-08-30T02:55:51.027Z,0.00
2018-08-30T02:56:50.999Z,0.00
2018-08-30T02:57:50.988Z,0.00
2018-08-30T02:58:50.969Z,0.00
2018-08-30T02:59:50.953Z,0.00
2018-08-30T03:00:50.939Z,0.00
2018-08-30T03:01:50.921Z,0.00
2018-08-30T03:02:50.909Z,0.00
2018-08-30T03:03:50.891Z,0.00
2018-08-30T03:04:50.878Z,0.00
2018-08-30T03:05:50.858Z,0.00
2018-08-30T03:06:50.844Z,0.00
2018-08-30T03:07:50.828Z,0.00
2018-08-30T03:08:50.811Z,0.00
2018-08-30T03:09:50.822Z,0.00
2018-08-30T03:10:50.780Z,0.00
2018-08-30T03:11:50.773Z,0.00
2018-08-30T03:12:50.754Z,0.00
2018-08-30T03:13:50.733Z,0.00
2018-08-30T03:14:50.721Z,0.00
2018-08-30T03:15:50.707Z,0.00
2018-08-30T03:16:50.688Z,0.00
2018-08-30T03:17:50.820Z,0.00
2018-08-30T03:18:50.658Z,0.00
2018-08-30T03:19:50.641Z,0.00
2018-08-30T03:20:50.664Z,0.00
2018-08-30T03:21:50.608Z,0.00
2018-08-30T03:22:50.592Z,0.00
2018-08-30T03:23:50.579Z,0.00
2018-08-30T03:24:50.582Z,0.00
2018-08-30T03:25:50.547Z,0.00
2018-08-30T03:26:50.531Z,0.00
2018-08-30T03:27:50.517Z,0.00
2018-08-30T03:28:50.500Z,0.00
2018-08-30T03:29:50.487Z,0.00
2018-08-30T03:30:50.538Z,0.00
2018-08-30T03:31:50.457Z,0.00
2018-08-30T03:32:50.436Z,0.00
2018-08-30T03:33:50.555Z,0.00
2018-08-30T03:34:50.406Z,0.00
2018-08-30T03:35:50.389Z,0.00
2018-08-30T03:36:50.375Z,0.00
2018-08-30T03:37:50.357Z,0.00
2018-08-30T03:38:50.345Z,0.00
2018-08-30T03:39:50.327Z,0.00
2018-08-30T03:40:50.310Z,0.00
2018-08-30T03:41:50.294Z,0.00
2018-08-30T03:42:50.278Z,0.00
2018-08-30T03:43:50.268Z,0.00
2018-08-30T03:44:50.246Z,0.00
2018-08-30T03:45:50.238Z,0.00
2018-08-30T03:46:50.232Z,0.00
2018-08-30T03:47:50.200Z,0.00
2018-08-30T03:48:50.182Z,0.00
2018-08-30T03:49:50.170Z,0.00
2018-08-30T03:50:50.153Z,0.00
2018-08-30T03:51:50.137Z,0.00
2018-08-30T03:52:50.196Z,0.00
2018-08-30T03:53:50.107Z,0.00
2018-08-30T03:54:50.089Z,0.00
2018-08-30T03:55:50.077Z,0.00
2018-08-30T03:56:50.059Z,0.00
2018-08-30T03:57:50.051Z,0.00
2018-08-30T03:58:50.027Z,0.00
2018-08-30T03:59:50.011Z,0.00
2018-08-30T04:00:50.023Z,0.00
2018-08-30T04:01:49.978Z,0.00
2018-08-30T04:02:49.963Z,0.00
2018-08-30T04:03:49.949Z,0.00
2018-08-30T04:04:49.932Z,0.00
2018-08-30T04:05:49.926Z,0.00
2018-08-30T04:06:49.903Z,0.00
2018-08-30T04:07:49.885Z,0.00
2018-08-30T04:08:49.867Z,0.00
2018-08-30T04:09:49.874Z,0.00
2018-08-30T04:10:49.844Z,0.00
2018-08-30T04:11:49.821Z,0.00
2018-08-30T04:12:49.803Z,0.00
2018-08-30T04:13:49.790Z,0.00
2018-08-30T04:14:49.779Z,0.00
2018-08-30T04:15:49.756Z,0.00
2018-08-30T04:16:49.746Z,0.00
2018-08-30T04:17:49.726Z,0.00
2018-08-30T04:18:49.712Z,0.00
2018-08-30T04:19:49.737Z,0.00
2018-08-30T04:20:49.680Z,0.00
2018-08-30T04:21:49.716Z,0.00
2018-08-30T04:22:49.651Z,0.00
2018-08-30T04:23:49.633Z,0.00
2018-08-30T04:24:49.616Z,0.00
2018-08-30T04:25:49.600Z,0.00
2018-08-30T04:26:49.585Z,0.00
2018-08-30T04:27:49.584Z,0.00
2018-08-30T04:28:49.553Z,0.00
2018-08-30T04:29:49.536Z,0.00
2018-08-30T04:30:49.522Z,0.00
2018-08-30T04:31:49.509Z,0.00
2018-08-30T04:32:49.490Z,0.00
2018-08-30T04:33:49.479Z,0.00
2018-08-30T04:34:49.464Z,0.00
2018-08-30T04:35:49.515Z,0.00
2018-08-30T04:36:49.424Z,0.00
2018-08-30T04:37:49.411Z,0.00
2018-08-30T04:38:49.401Z,5.63
2018-08-30T04:39:49.381Z,5.63
2018-08-30T04:40:49.365Z,5.63
2018-08-30T04:41:49.351Z,5.63
2018-08-30T04:42:49.388Z,5.63
2018-08-30T04:43:49.323Z,5.63
2018-08-30T04:44:49.304Z,5.63
2018-08-30T04:45:49.290Z,5.63
2018-08-30T04:46:49.319Z,5.63
2018-08-30T04:47:49.254Z,11.25
2018-08-30T04:48:49.238Z,11.25
2018-08-30T04:49:49.231Z,11.25
2018-08-30T04:50:49.204Z,11.25
2018-08-30T04:51:49.188Z,11.25
2018-08-30T04:52:49.183Z,11.25
2018-08-30T04:53:49.163Z,11.25
2018-08-30T04:54:49.140Z,11.25
2018-08-30T04:55:49.127Z,11.25
2018-08-30T04:56:49.107Z,11.25
2018-08-30T04:57:49.097Z,11.25
2018-08-30T04:58:49.077Z,11.25
2018-08-30T04:59:49.062Z,11.25
2018-08-30T05:00:49.049Z,11.25
2018-08-30T05:01:49.122Z,16.88
2018-08-30T05:02:49.120Z,16.88
2018-08-30T05:03:48.999Z,16.88
2018-08-30T05:04:48.994Z,16.88
2018-08-30T05:05:49.025Z,16.88
2018-08-30T05:06:48.961Z,16.88
2018-08-30T05:07:48.937Z,16.88
2018-08-30T05:08:48.919Z,16.88
2018-08-30T05:09:48.904Z,16.88
2018-08-30T05:10:48.889Z,16.88
2018-08-30T05:11:48.874Z,16.88
2018-08-30T05:12:48.857Z,22.50
2018-08-30T05:13:48.839Z,28.13
2018-08-30T05:14:48.840Z,33.75
2018-08-30T05:15:48.811Z,33.75
2018-08-30T05:16:48.792Z,28.13
2018-08-30T05:17:48.778Z,28.13
2018-08-30T05:18:48.770Z,33.75
2018-08-30T05:19:48.746Z,33.75
2018-08-30T05:20:48.731Z,39.38
2018-08-30T05:21:48.848Z,33.75
2018-08-30T05:22:48.703Z,28.13
2018-08-30T05:23:48.688Z,28.13
2018-08-30T05:24:48.676Z,33.75
2018-08-30T05:25:48.656Z,39.38
2018-08-30T05:26:48.636Z,45.00
2018-08-30T05:27:48.618Z,50.63
2018-08-30T05:28:48.610Z,61.88
2018-08-30T05:29:48.682Z,61.88
2018-08-30T05:30:48.570Z,50.63
2018-08-30T05:31:48.555Z,45.00
2018-08-30T05:32:48.541Z,39.38
2018-08-30T05:33:48.525Z,45.00
2018-08-30T05:34:48.510Z,45.00
2018-08-30T05:35:48.602Z,56.25
2018-08-30T05:36:48.483Z,61.88
2018-08-30T05:37:48.465Z,50.63
2018-08-30T05:38:48.445Z,39.38
2018-08-30T05:39:48.429Z,33.75
2018-08-30T05:40:48.415Z,33.75
2018-08-30T05:41:48.402Z,28.13
2018-08-30T05:42:48.386Z,28.13
2018-08-30T05:43:48.368Z,28.13
2018-08-30T05:44:48.425Z,28.13
2018-08-30T05:45:48.354Z,33.75
2018-08-30T05:46:48.324Z,33.75
2018-08-30T05:47:48.303Z,39.38
2018-08-30T05:48:48.386Z,39.38
2018-08-30T05:49:48.274Z,39.38
2018-08-30T05:50:48.262Z,45.00
2018-08-30T05:51:48.274Z,39.38
2018-08-30T05:52:48.226Z,50.63
2018-08-30T05:53:48.210Z,45.00
2018-08-30T05:54:48.197Z,50.63
2018-08-30T05:55:48.177Z,56.25
2018-08-30T05:56:48.223Z,73.13
2018-08-30T05:57:48.146Z,67.50
2018-08-30T05:58:48.134Z,90.00
2018-08-30T05:59:48.117Z,84.38
2018-08-30T06:00:48.102Z,90.00
2018-08-30T06:01:48.082Z,90.00
2018-08-30T06:02:48.076Z,73.13
2018-08-30T06:03:48.052Z,78.75
2018-08-30T06:04:48.112Z,73.13
2018-08-30T06:05:48.022Z,73.13
2018-08-30T06:06:48.008Z,73.13
2018-08-30T06:07:48.038Z,67.50
2018-08-30T06:08:47.982Z,90.00
2018-08-30T06:09:47.957Z,84.38
2018-08-30T06:10:47.944Z,84.38
2018-08-30T06:11:47.929Z,84.38
2018-08-30T06:12:47.915Z,90.00
2018-08-30T06:13:47.894Z,95.63
2018-08-30T06:14:47.882Z,67.50
2018-08-30T06:15:47.866Z,84.38
2018-08-30T06:16:47.852Z,90.00
2018-08-30T06:17:47.831Z,95.63
2018-08-30T06:18:47.817Z,101.25
2018-08-30T06:19:47.800Z,118.13
2018-08-30T06:20:47.784Z,112.50
2018-08-30T06:21:47.781Z,146.25
2018-08-30T06:22:47.763Z,168.75
2018-08-30T06:23:47.823Z,157.50
2018-08-30T06:24:47.724Z,146.25
2018-08-30T06:25:47.709Z,146.25
2018-08-30T06:26:47.807Z,146.25
2018-08-30T06:27:47.676Z,174.38
2018-08-30T06:28:47.659Z,174.38
2018-08-30T06:29:47.643Z,185.63
2018-08-30T06:30:47.631Z,225.00
2018-08-30T06:31:47.770Z,230.63
2018-08-30T06:32:47.640Z,202.50
2018-08-30T06:33:47.584Z,174.38
2018-08-30T06:34:47.655Z,146.25
2018-08-30T06:35:47.551Z,140.63
2018-08-30T06:36:47.542Z,112.50
2018-08-30T06:37:47.536Z,95.63
2018-08-30T06:38:47.574Z,106.88
2018-08-30T06:39:47.493Z,129.38
2018-08-30T06:40:47.475Z,151.88
2018-08-30T06:41:47.472Z,180.00
2018-08-30T06:42:47.453Z,185.63
2018-08-30T06:43:47.430Z,180.00
2018-08-30T06:44:47.414Z,174.38
2018-08-30T06:45:47.400Z,163.13
2018-08-30T06:46:47.383Z,151.88
2018-08-30T06:47:47.397Z,151.88
2018-08-30T06:48:47.376Z,163.13
2018-08-30T06:49:47.338Z,168.75
2018-08-30T06:50:47.370Z,174.38
2018-08-30T06:51:47.316Z,191.25
2018-08-30T06:52:47.292Z,213.75
2018-08-30T06:53:47.277Z,253.13
2018-08-30T06:54:47.261Z,298.13
2018-08-30T06:55:47.250Z,343.13
2018-08-30T06:56:47.251Z,309.38
2018-08-30T06:57:47.218Z,275.63
2018-08-30T06:58:47.205Z,275.63
2018-08-30T06:59:47.189Z,281.25
2018-08-30T07:00:47.171Z,281.25
2018-08-30T07:01:47.156Z,230.63
2018-08-30T07:02:47.143Z,185.63
2018-08-30T07:03:47.148Z,168.75
2018-08-30T07:04:47.112Z,163.13
2018-08-30T07:05:47.097Z,174.38
2018-08-30T07:06:47.232Z,180.00
2018-08-30T07:07:47.072Z,180.00
2018-08-30T07:08:47.062Z,163.13
2018-08-30T07:09:47.160Z,157.50
2018-08-30T07:10:47.022Z,185.63
2018-08-30T07:11:47.008Z,168.75
2018-08-30T07:12:47.011Z,202.50
2018-08-30T07:13:46.978Z,168.75
2018-08-30T07:14:46.965Z,219.38
2018-08-30T07:15:46.948Z,241.88
2018-08-30T07:16:46.935Z,253.13
2018-08-30T07:17:46.957Z,270.00
2018-08-30T07:18:46.901Z,326.25
2018-08-30T07:19:46.887Z,360.00
2018-08-30T07:20:46.874Z,421.88
2018-08-30T07:21:46.856Z,455.63
2018-08-30T07:22:46.848Z,472.50
2018-08-30T07:23:46.825Z,523.13
2018-08-30T07:24:46.811Z,534.38
2018-08-30T07:25:46.795Z,461.25
2018-08-30T07:26:46.794Z,438.75
2018-08-30T07:27:46.766Z,461.25
2018-08-30T07:28:46.752Z,444.38
2018-08-30T07:29:46.741Z,540.00
2018-08-30T07:30:46.735Z,551.25
2018-08-30T07:31:46.709Z,579.38
2018-08-30T07:32:46.700Z,669.38
2018-08-30T07:33:46.742Z,573.75
2018-08-30T07:34:46.741Z,506.25
2018-08-30T07:35:46.651Z,551.25
2018-08-30T07:36:46.647Z,618.75
2018-08-30T07:37:46.622Z,703.13
2018-08-30T07:38:46.610Z,776.25
2018-08-30T07:39:46.594Z,652.50
2018-08-30T07:40:46.580Z,618.75
2018-08-30T07:41:46.570Z,759.38
2018-08-30T07:42:46.556Z,669.38
2018-08-30T07:43:46.563Z,911.25
2018-08-30T07:44:46.529Z,945.00
2018-08-30T07:45:46.510Z,815.63
2018-08-30T07:46:46.494Z,697.50
2018-08-30T07:47:46.482Z,708.75
2018-08-30T07:48:46.468Z,776.25
2018-08-30T07:49:46.657Z,708.75
2018-08-30T07:50:46.483Z,776.25
2018-08-30T07:51:46.433Z,686.25
2018-08-30T07:52:46.441Z,725.63
2018-08-30T07:53:46.408Z,742.50
2018-08-30T07:54:46.389Z,646.88
2018-08-30T07:55:46.375Z,663.75
2018-08-30T07:56:46.363Z,748.13
2018-08-30T07:57:46.351Z,781.88
2018-08-30T07:58:46.336Z,720.00
2018-08-30T07:59:46.323Z,714.38
2018-08-30T08:00:46.310Z,703.13
2018-08-30T08:01:46.297Z,759.38
2018-08-30T08:02:46.283Z,703.13
2018-08-30T08:03:46.273Z,720.00
2018-08-30T08:04:46.257Z,736.88
2018-08-30T08:05:46.257Z,697.50
2018-08-30T08:06:46.236Z,658.13
2018-08-30T08:07:46.222Z,855.00
2018-08-30T08:08:46.235Z,590.63
2018-08-30T08:09:46.194Z,669.38
2018-08-30T08:10:46.196Z,1057.50
2018-08-30T08:11:46.179Z,1215.00
2018-08-30T08:12:46.203Z,939.38
2018-08-30T08:13:46.144Z,1771.88
2018-08-30T08:14:46.140Z,669.38
2018-08-30T08:15:46.121Z,1468.13
2018-08-30T08:16:46.105Z,1237.50
2018-08-30T08:17:46.094Z,1591.88
2018-08-30T08:18:46.081Z,1209.38
2018-08-30T08:19:46.077Z,984.38
2018-08-30T08:20:46.055Z,810.00
2018-08-30T08:21:46.046Z,1141.88
2018-08-30T08:22:46.035Z,894.38
2018-08-30T08:23:46.022Z,1203.75
2018-08-30T08:24:46.026Z,641.25
2018-08-30T08:25:45.997Z,821.25
2018-08-30T08:26:46.005Z,815.63
2018-08-30T08:27:45.981Z,720.00
2018-08-30T08:28:45.961Z,787.50
2018-08-30T08:29:46.002Z,669.38
2018-08-30T08:30:45.939Z,691.88
2018-08-30T08:31:45.928Z,1119.38
2018-08-30T08:32:45.913Z,1063.13
2018-08-30T08:33:45.901Z,720.00
2018-08-30T08:34:45.897Z,753.75
2018-08-30T08:35:45.878Z,686.25
2018-08-30T08:36:45.871Z,759.38
2018-08-30T08:37:45.856Z,849.38
2018-08-30T08:38:45.843Z,658.13
2018-08-30T08:39:45.830Z,703.13
2018-08-30T08:40:45.820Z,742.50
2018-08-30T08:41:45.806Z,787.50
2018-08-30T08:42:45.793Z,826.88
2018-08-30T08:43:45.784Z,776.25
2018-08-30T08:44:45.770Z,894.38
2018-08-30T08:45:45.772Z,646.88
2018-08-30T08:46:45.750Z,826.88
2018-08-30T08:47:45.797Z,770.63
2018-08-30T08:48:45.762Z,883.13
2018-08-30T08:49:45.715Z,708.75
2018-08-30T08:50:45.701Z,759.38
2018-08-30T08:51:45.688Z,838.13
2018-08-30T08:52:45.678Z,720.00
2018-08-30T08:53:45.794Z,877.50
2018-08-30T08:54:45.653Z,849.38
2018-08-30T08:55:45.641Z,804.38
2018-08-30T08:56:45.627Z,1839.38
2018-08-30T08:57:45.627Z,1411.88
2018-08-30T08:58:45.661Z,1074.38
2018-08-30T08:59:45.592Z,1012.50
2018-08-30T09:00:45.581Z,967.50
2018-08-30T09:01:45.723Z,1991.25
2018-08-30T09:02:45.557Z,973.13
2018-08-30T09:03:45.548Z,776.25
2018-08-30T09:04:45.544Z,787.50
2018-08-30T09:05:45.521Z,888.75
2018-08-30T09:06:45.527Z,821.25
2018-08-30T09:07:45.591Z,978.75
2018-08-30T09:08:45.493Z,1620.00
2018-08-30T09:09:45.554Z,2086.88
2018-08-30T09:10:45.464Z,1935.00
2018-08-30T09:11:45.456Z,1693.13
2018-08-30T09:12:45.491Z,2548.13
2018-08-30T09:13:45.435Z,2295.00
2018-08-30T09:14:45.637Z,1372.50
2018-08-30T09:15:45.408Z,905.63
2018-08-30T09:16:45.396Z,928.13
2018-08-30T09:17:45.385Z,1693.13
2018-08-30T09:18:45.375Z,1035.00
2018-08-30T09:19:45.371Z,1614.38
2018-08-30T09:20:45.355Z,911.25
2018-08-30T09:21:45.352Z,1018.13
2018-08-30T09:22:45.335Z,1608.75
2018-08-30T09:23:45.328Z,2193.75
2018-08-30T09:24:45.920Z,1046.25
2018-08-30T09:25:45.325Z,905.63
2018-08-30T09:26:45.316Z,1035.00
2018-08-30T09:27:45.284Z,950.63
2018-08-30T09:28:45.376Z,900.00
2018-08-30T09:29:45.265Z,1456.88
2018-08-30T09:30:45.256Z,455.63
2018-08-30T09:31:45.244Z,613.13
2018-08-30T09:32:45.234Z,1040.63
2018-08-30T09:33:45.244Z,1029.38
2018-08-30T09:34:45.214Z,534.38
2018-08-30T09:35:45.212Z,528.75
2018-08-30T09:36:45.190Z,551.25
2018-08-30T09:37:45.198Z,427.50
2018-08-30T09:38:45.173Z,455.63
2018-08-30T09:39:45.162Z,663.75
2018-08-30T09:40:45.153Z,776.25
2018-08-30T09:41:45.200Z,793.13
2018-08-30T09:42:45.133Z,798.75
2018-08-30T09:43:45.153Z,916.88
2018-08-30T09:44:45.208Z,1147.50
2018-08-30T09:45:45.098Z,1395.00
2018-08-30T09:46:45.088Z,3015.00
2018-08-30T09:47:45.075Z,641.25
2018-08-30T09:48:45.066Z,416.25
2018-08-30T09:49:45.102Z,371.25
2018-08-30T09:50:45.052Z,393.75
2018-08-30T09:51:45.045Z,528.75
2018-08-30T09:52:45.023Z,2531.25
2018-08-30T09:53:45.013Z,2806.88
2018-08-30T09:54:45.004Z,703.13
2018-08-30T09:55:45.029Z,1046.25
2018-08-30T09:56:45.093Z,1035.00
2018-08-30T09:57:44.973Z,3048.75
2018-08-30T09:58:44.963Z,1203.75
2018-08-30T09:59:44.952Z,1271.25
2018-08-30T10:00:44.952Z,900.00
2018-08-30T10:01:44.933Z,843.75
2018-08-30T10:02:45.045Z,3054.38
2018-08-30T10:03:44.933Z,2503.13
2018-08-30T10:04:44.964Z,2418.75
2018-08-30T10:05:44.931Z,2722.50
2018-08-30T10:06:44.886Z,1186.88
2018-08-30T10:07:44.881Z,787.50
2018-08-30T10:08:44.871Z,793.13
2018-08-30T10:09:44.864Z,2823.75
2018-08-30T10:10:44.851Z,1237.50
2018-08-30T10:11:44.842Z,2970.00
2018-08-30T10:12:44.839Z,3020.63
2018-08-30T10:13:44.824Z,3127.50
2018-08-30T10:14:44.819Z,2930.63
2018-08-30T10:15:44.863Z,2936.25
2018-08-30T10:16:44.804Z,3009.38
2018-08-30T10:17:44.800Z,2975.63
2018-08-30T10:18:44.930Z,2941.88
2018-08-30T10:19:44.786Z,3268.13
2018-08-30T10:20:44.787Z,3391.88
2018-08-30T10:21:44.851Z,3273.75
2018-08-30T10:22:44.765Z,3285.00
2018-08-30T10:23:44.763Z,3448.13
2018-08-30T10:24:44.769Z,2013.75
2018-08-30T10:25:44.756Z,3262.50
2018-08-30T10:26:44.755Z,3256.88
2018-08-30T10:27:44.744Z,2041.88
2018-08-30T10:28:44.745Z,877.50
2018-08-30T10:29:44.731Z,2553.75
2018-08-30T10:30:44.732Z,1192.50
2018-08-30T10:31:44.760Z,3324.38
2018-08-30T10:32:44.722Z,2818.13
2018-08-30T10:33:44.718Z,3223.13
2018-08-30T10:34:44.712Z,3301.88
2018-08-30T10:35:47.710Z,3386.25
2018-08-30T10:36:44.714Z,3403.13
2018-08-30T10:37:44.701Z,3200.63
2018-08-30T10:38:44.817Z,3386.25
2018-08-30T10:39:44.715Z,3358.13
2018-08-30T10:40:44.706Z,1636.88
2018-08-30T10:41:44.698Z,1518.75
2018-08-30T10:42:44.686Z,838.13
2018-08-30T10:43:44.697Z,905.63
2018-08-30T10:44:44.676Z,984.38
2018-08-30T10:45:44.674Z,877.50
2018-08-30T10:46:44.672Z,3071.25
2018-08-30T10:47:44.666Z,1693.13
2018-08-30T10:48:44.663Z,3313.13
2018-08-30T10:49:44.678Z,1080.00
2018-08-30T10:50:44.667Z,3150.00
2018-08-30T10:51:44.656Z,860.63
2018-08-30T10:52:44.651Z,1715.63
2018-08-30T10:53:44.651Z,3571.88
2018-08-30T10:54:44.702Z,3611.25
2018-08-30T10:55:44.641Z,3346.88
2018-08-30T10:56:44.633Z,1580.63
2018-08-30T10:57:44.630Z,528.75
2018-08-30T10:58:44.635Z,534.38
2018-08-30T10:59:44.633Z,3296.25
2018-08-30T11:00:44.616Z,3189.38
2018-08-30T11:01:44.613Z,3245.63
2018-08-30T11:02:44.610Z,3408.75
2018-08-30T11:03:44.619Z,2745.00
2018-08-30T11:04:44.602Z,3065.63
2018-08-30T11:05:44.606Z,3121.88
2018-08-30T11:06:44.595Z,3110.63
2018-08-30T11:07:44.590Z,3105.00
2018-08-30T11:08:44.593Z,3211.88
2018-08-30T11:09:44.596Z,3110.63
2018-08-30T11:10:44.589Z,669.38
2018-08-30T11:11:44.589Z,1085.63
2018-08-30T11:12:44.704Z,2835.00
2018-08-30T11:13:44.593Z,3037.50
2018-08-30T11:14:44.569Z,691.88
2018-08-30T11:15:44.567Z,630.00
2018-08-30T11:16:44.562Z,478.13
2018-08-30T11:17:44.559Z,2761.88
2018-08-30T11:18:44.558Z,2700.00
2018-08-30T11:19:44.553Z,2233.13
2018-08-30T11:20:44.548Z,2936.25
2018-08-30T11:21:44.552Z,916.88
2018-08-30T11:22:44.675Z,810.00
2018-08-30T11:23:44.558Z,933.75
2018-08-30T11:24:44.533Z,1597.50
2018-08-30T11:25:44.636Z,3144.38
2018-08-30T11:26:44.524Z,3155.63
2018-08-30T11:27:44.529Z,2790.00
2018-08-30T11:28:44.516Z,978.75
2018-08-30T11:29:44.521Z,686.25
2018-08-30T11:30:44.510Z,776.25
2018-08-30T11:31:44.511Z,2480.63
2018-08-30T11:32:44.497Z,2497.50
2018-08-30T11:33:44.496Z,2160.00
2018-08-30T11:34:44.496Z,1839.38
2018-08-30T11:35:44.482Z,1710.00
2018-08-30T11:36:44.484Z,1411.88
2018-08-30T11:37:44.562Z,1895.63
2018-08-30T11:38:44.558Z,1833.75
2018-08-30T11:39:44.466Z,1693.13
2018-08-30T11:40:44.467Z,1681.88
2018-08-30T11:41:44.571Z,1625.63
2018-08-30T11:42:44.474Z,1051.88
2018-08-30T11:43:44.443Z,725.63
2018-08-30T11:44:44.446Z,894.38
2018-08-30T11:45:44.434Z,922.50
2018-08-30T11:46:44.433Z,860.63
2018-08-30T11:47:44.418Z,646.88
2018-08-30T11:48:44.422Z,360.00
2018-08-30T11:49:44.405Z,388.13
2018-08-30T11:50:44.398Z,652.50
2018-08-30T11:51:44.587Z,669.38
2018-08-30T11:52:44.416Z,669.38
2018-08-30T11:53:44.382Z,663.75
2018-08-30T11:54:44.415Z,663.75
2018-08-30T11:55:44.365Z,663.75
2018-08-30T11:56:44.357Z,663.75
2018-08-30T11:57:44.348Z,669.38
2018-08-30T11:58:44.343Z,658.13
2018-08-30T11:59:44.334Z,641.25
2018-08-30T12:00:44.335Z,646.88
2018-08-30T12:01:44.320Z,635.63
2018-08-30T12:02:44.312Z,624.38
2018-08-30T12:03:44.302Z,646.88
2018-08-30T12:04:44.291Z,669.38
2018-08-30T12:05:44.316Z,680.63
2018-08-30T12:06:44.314Z,691.88
2018-08-30T12:07:44.271Z,720.00
2018-08-30T12:08:44.258Z,742.50
2018-08-30T12:09:44.248Z,765.00
2018-08-30T12:10:44.319Z,770.63
2018-08-30T12:11:44.241Z,781.88
2018-08-30T12:12:44.381Z,804.38
2018-08-30T12:13:44.935Z,815.63
2018-08-30T12:14:44.205Z,821.25
2018-08-30T12:15:44.195Z,804.38
2018-08-30T12:16:44.190Z,821.25
2018-08-30T12:17:44.184Z,849.38
2018-08-30T12:18:44.222Z,731.25
2018-08-30T12:19:44.166Z,714.38
2018-08-30T12:20:44.279Z,663.75
2018-08-30T12:21:44.137Z,680.63
2018-08-30T12:22:44.133Z,669.38
2018-08-30T12:23:44.123Z,680.63
2018-08-30T12:24:44.111Z,708.75
2018-08-30T12:25:44.121Z,776.25
2018-08-30T12:26:44.104Z,798.75
2018-08-30T12:27:44.093Z,804.38
2018-08-30T12:28:44.173Z,804.38
2018-08-30T12:29:44.081Z,826.88
2018-08-30T12:30:44.069Z,815.63
2018-08-30T12:31:44.114Z,787.50
2018-08-30T12:32:44.063Z,821.25
2018-08-30T12:33:44.057Z,804.38
2018-08-30T12:34:44.061Z,793.13
2018-08-30T12:35:44.458Z,736.88
2018-08-30T12:36:44.036Z,675.00
2018-08-30T12:37:44.025Z,630.00
2018-08-30T12:38:43.986Z,618.75
2018-08-30T12:39:44.100Z,585.00
2018-08-30T12:40:43.963Z,500.63
2018-08-30T12:41:44.159Z,523.13
2018-08-30T12:42:44.069Z,630.00
2018-08-30T12:43:43.988Z,607.50
2018-08-30T12:44:43.993Z,618.75
2018-08-30T12:45:43.926Z,624.38